Sumter, SC (29150)

5:40 PM EST on February 10, 2016 (GMT -0500)
Kingsbury | | Change Station
CLOSE
Current Station
Personal Weather Station
Location: Sumter, SC
Elevation: 157 ft
Nearby Weather Stations
Active Advisory: Lake Wind Advisory

Elev 157 ft 33.89 °N, 80.37 °W | Updated 6 minutes ago

Partly Cloudy
Partly Cloudy
36.5 °F
Feels Like 36 °F
N
2.2
Wind Variable Wind from WSW

Today
High -- | Low -- °F
--% Chance of Precip.
Yesterday
High -- | Low -- °F
Precip. -- in
Pressure 30.04 in
Visibility 10.0 miles
Clouds Clear
Windchill 36 °F
Dew Point 10 °F
Humidity 32%
Rainfall 0.00 in
Snow Depth Not available.
7:10 AM 6:00 PM
Waxing Crescent, 7% visible
METAR KSMS 102235Z AUTO 27010G19KT 10SM CLR 08/M08 A3004 RMK AO2
Pressure 30.04 in
Visibility 10.0 miles
Clouds Clear
Windchill 36 °F
Dew Point 10 °F
Humidity 32%
Rainfall 0.00 in
Snow Depth Not available.
7:10 AM 6:00 PM
Waxing Crescent, 7% visible
METAR KSMS 102235Z AUTO 27010G19KT 10SM CLR 08/M08 A3004 RMK AO2

10-Day Weather Forecast

Almanac

Astronomy

Feb. 10, 2016 Rise Set
Actual Time
Civil Twilight
Nautical Twilight
Astronomical Twilight
Moon
Length of Visible Light
Length of Day
Tomorrow will be .
, % of the Moon is Illuminated

Today's Extremes

State Highs State Lows

Community

WunderPhotos

Upload Photos

1,891,944 photos uploaded!

WunderBlog® & News

Nearby

Air Quality

  Air Quality AQ Index Pollutant
Not available.

Snow Depth

Station Depth Elevation

Earthquake Activity

City Distance Mag. Time & Date
Minimum magnitude displayed is 2.5.

Coastal Water Temperatures

Place Temperature

Stations

Nearby Weather Stations

Station Location Temp. Windchill Dew Point Humidity Wind Precip. Elev Updated Type
                   

Watches & Warnings

Lake Wind Advisory
Issued: 3:47 AM EST Feb. 10, 2016 – National Weather Service

... Lake Wind Advisory remains in effect until 11 PM EST this
evening...

* timing... through this evening.

* Winds... west 20 to 30 knots.

* Impacts... strong winds and rough chop will create hazardous
conditions for small craft and personal watercraft.

Precautionary/preparedness actions...

A lake Wind Advisory indicates that winds will cause rough chop
on area lakes. Small boats will be especially prone to capsizing.